Time;durP1;ratioP1;P1;durP2;ratioP2;P2;SDS_P1;SDS_P2;PMS_P1;PMS_P2;Temp;Humidity;BMP_temperature;BMP_pressure;BME280_temperature;BME280_humidity;BME280_pressure;Samples;Min_cycle;Max_cycle;Signal;HPM_P1;HPM_P2
2023/04/07 00:01:11;;;;;;;22.67;17.40;;;;;;;6.67;100.00;101486.25;4945539;28;20495;-80
2023/04/07 00:03:40;;;;;;;22.98;17.75;;;;;;;6.66;100.00;101488.84;4960649;28;20051;-80
2023/04/07 00:06:07;;;;;;;22.08;17.10;;;;;;;6.66;100.00;101484.47;4968756;28;20050;-80
2023/04/07 00:08:35;;;;;;;24.15;17.63;;;;;;;6.64;100.00;101488.78;4955739;28;20047;-80
2023/04/07 00:11:02;;;;;;;20.45;16.40;;;;;;;6.63;100.00;101485.28;4955759;28;20061;-80
2023/04/07 00:13:30;;;;;;;22.17;17.65;;;;;;;6.64;100.00;101483.56;4900858;28;20050;-80
2023/04/07 00:15:57;;;;;;;21.35;17.20;;;;;;;6.64;100.00;101486.19;4961372;28;20047;-80
2023/04/07 00:18:25;;;;;;;22.08;16.83;;;;;;;6.62;100.00;101491.34;4951866;28;20051;-80
2023/04/07 00:20:52;;;;;;;20.38;16.63;;;;;;;6.62;100.00;101491.34;4944077;28;20055;-81
2023/04/07 00:23:19;;;;;;;22.58;16.40;;;;;;;6.62;100.00;101491.34;4952241;28;20073;-80
2023/04/07 00:25:47;;;;;;;20.33;15.55;;;;;;;6.62;100.00;101488.75;4953735;28;20035;-80
2023/04/07 00:28:15;;;;;;;20.70;15.85;;;;;;;6.61;100.00;101494.81;4891690;29;20055;-80
2023/04/07 00:30:42;;;;;;;21.70;15.77;;;;;;;6.62;100.00;101496.59;4961081;28;20046;-80
2023/04/07 00:33:10;;;;;;;21.42;16.20;;;;;;;6.62;100.00;101493.97;4960250;28;20051;-80
2023/04/07 00:35:37;;;;;;;21.42;15.73;;;;;;;6.62;100.00;101496.59;4967566;28;20413;-80
2023/04/07 00:38:04;;;;;;;19.17;15.27;;;;;;;6.63;100.00;101493.16;4949343;28;20417;-80
2023/04/07 00:40:33;;;;;;;18.25;14.80;;;;;;;6.63;100.00;101481.75;4955128;28;20055;-80
2023/04/07 00:43:01;;;;;;;18.63;15.35;;;;;;;6.63;100.00;101493.16;4934613;28;20050;-80
2023/04/07 00:45:28;;;;;;;21.08;14.70;;;;;;;6.63;100.00;101479.16;4963007;28;20513;-80
2023/04/07 00:47:57;;;;;;;24.13;17.20;;;;;;;6.64;100.00;101478.31;4943696;28;20039;-81
2023/04/07 00:50:25;;;;;;;18.48;15.48;;;;;;;6.63;100.00;101484.38;4952666;28;20051;-80
2023/04/07 00:52:55;;;;;;;18.98;14.82;;;;;;;6.62;100.00;101483.50;4950134;28;20062;-80
2023/04/07 00:55:23;;;;;;;18.13;15.03;;;;;;;6.63;100.00;101487.00;4950454;28;20450;-80
2023/04/07 00:57:50;;;;;;;18.27;14.73;;;;;;;6.63;100.00;101487.91;4934971;28;20287;-80
2023/04/07 01:00:18;;;;;;;19.45;14.90;;;;;;;6.62;100.00;101486.13;4972905;28;20059;-80
2023/04/07 01:03:16;;;;;;;20.48;14.95;;;;;;;6.61;100.00;101484.31;4938047;28;20066;-80
2023/04/07 01:05:55;;;;;;;19.95;15.02;;;;;;;6.61;100.00;101489.56;4960728;28;20050;-80
2023/04/07 01:08:41;;;;;;;20.20;14.77;;;;;;;6.61;100.00;101491.31;4964629;28;20058;-80
2023/04/07 01:11:26;;;;;;;17.95;14.27;;;;;;;6.61;100.00;101491.31;4945585;28;20042;-80
2023/04/07 01:13:57;;;;;;;18.35;14.75;;;;;;;6.59;100.00;101483.41;4940768;28;20062;-80
2023/04/07 01:16:48;;;;;;;17.20;13.70;;;;;;;6.58;100.00;101479.03;4971509;28;20067;-80
2023/04/07 01:19:38;;;;;;;15.90;13.25;;;;;;;6.60;100.00;101471.22;4952816;28;20069;-80
2023/04/07 01:22:13;;;;;;;19.00;14.38;;;;;;;6.59;100.00;101472.91;4968486;28;20054;-80
2023/04/07 01:24:49;;;;;;;18.77;14.40;;;;;;;6.58;100.00;101468.53;4967215;28;20070;-80
2023/04/07 01:27:46;;;;;;;16.45;13.80;;;;;;;6.59;100.00;101479.91;4965075;28;20043;-80
2023/04/07 01:30:15;;;;;;;18.88;15.02;;;;;;;6.59;100.00;101483.41;4915686;28;20058;-80
2023/04/07 01:32:49;;;;;;;15.43;13.70;;;;;;;6.58;100.00;101484.25;4945864;28;23932;-80
2023/04/07 01:35:18;;;;;;;15.65;13.10;;;;;;;6.59;100.00;101485.13;4969102;28;20043;-80
2023/04/07 01:37:49;;;;;;;16.77;14.23;;;;;;;6.59;100.00;101487.75;4945642;28;20063;-80
2023/04/07 01:40:17;;;;;;;16.35;13.27;;;;;;;6.59;100.00;101479.91;4961272;28;20509;-80
2023/04/07 01:42:46;;;;;;;18.13;14.48;;;;;;;6.58;100.00;101479.03;4958098;28;20706;-80
2023/04/07 01:45:15;;;;;;;16.77;13.60;;;;;;;6.57;100.00;101482.47;4906923;28;20066;-80
2023/04/07 01:47:44;;;;;;;17.40;14.02;;;;;;;6.56;100.00;101483.31;4941944;28;20050;-80
2023/04/07 01:50:12;;;;;;;16.77;14.95;;;;;;;6.56;100.00;101485.03;4946787;28;20066;-80
2023/04/07 01:52:42;;;;;;;17.45;14.07;;;;;;;6.53;100.00;101491.09;4948433;28;20070;-80
2023/04/07 01:55:09;;;;;;;18.67;14.57;;;;;;;6.52;100.00;101486.72;4966244;28;20047;-80
2023/04/07 01:57:45;;;;;;;16.58;13.38;;;;;;;6.52;100.00;101499.78;4950192;28;20039;-80
2023/04/07 02:00:17;;;;;;;18.75;14.40;;;;;;;6.52;100.00;101493.66;4922283;28;20417;-80
2023/04/07 02:02:54;;;;;;;20.00;14.05;;;;;;;6.50;100.00;101485.75;4974848;28;20502;-80
2023/04/07 02:05:22;;;;;;;16.33;14.07;;;;;;;6.50;100.00;101490.97;4959746;28;20065;-80
2023/04/07 02:07:58;;;;;;;18.15;13.82;;;;;;;6.49;100.00;101490.97;4935492;28;20061;-80
2023/04/07 02:10:28;;;;;;;15.57;13.68;;;;;;;6.49;100.00;101493.56;4953216;28;20053;-80
2023/04/07 02:13:00;;;;;;;16.95;14.45;;;;;;;6.49;100.00;101493.56;4957438;28;20050;-81
2023/04/07 02:15:31;;;;;;;18.40;14.73;;;;;;;6.49;100.00;101491.84;4930131;28;20046;-80
2023/04/07 02:18:00;;;;;;;16.08;13.98;;;;;;;6.50;100.00;101496.22;4969501;28;20054;-81
2023/04/07 02:20:28;;;;;;;16.55;13.90;;;;;;;6.50;100.00;101490.97;4960461;28;20047;-80
2023/04/07 02:22:56;;;;;;;15.95;14.00;;;;;;;6.50;100.00;101498.84;4955105;28;20480;-81
2023/04/07 02:25:26;;;;;;;15.20;13.60;;;;;;;6.50;100.00;101496.22;4934156;28;20055;-80
2023/04/07 02:27:55;;;;;;;16.27;13.77;;;;;;;6.51;100.00;101500.63;4969594;28;20777;-80
2023/04/07 02:30:23;;;;;;;14.93;13.23;;;;;;;6.51;100.00;101495.38;4924464;28;20074;-82
2023/04/07 02:32:51;;;;;;;16.58;14.40;;;;;;;6.51;100.00;101503.25;4967580;28;20513;-81
2023/04/07 02:35:20;;;;;;;15.60;13.02;;;;;;;6.53;100.00;101505.91;4953135;28;20051;-81
2023/04/07 02:37:48;;;;;;;17.10;13.27;;;;;;;6.53;100.00;101500.69;4954014;28;20066;-81
2023/04/07 02:40:15;;;;;;;15.82;13.40;;;;;;;6.53;100.00;101506.78;4952220;28;20055;-81
2023/04/07 02:42:44;;;;;;;16.88;14.57;;;;;;;6.53;100.00;101505.91;4966478;28;20529;-81
2023/04/07 02:45:11;;;;;;;16.88;14.10;;;;;;;6.53;100.00;101500.69;4950988;28;20438;-81
2023/04/07 02:47:39;;;;;;;17.92;14.98;;;;;;;6.54;100.00;101503.34;4931585;28;20053;-81
2023/04/07 02:50:06;;;;;;;17.10;14.05;;;;;;;6.53;100.00;101506.78;4970136;28;20057;-80
2023/04/07 02:52:35;;;;;;;17.92;13.98;;;;;;;6.54;100.00;101503.34;4946268;28;20061;-81
2023/04/07 02:55:10;;;;;;;18.23;14.23;;;;;;;6.54;100.00;101505.06;4966499;28;20050;-81
2023/04/07 02:57:38;;;;;;;17.95;14.18;;;;;;;6.52;100.00;101502.41;4953992;28;20039;-80
2023/04/07 03:00:11;;;;;;;16.35;14.23;;;;;;;6.52;100.00;101505.03;4946573;28;20070;-80
2023/04/07 03:03:01;;;;;;;18.38;15.00;;;;;;;6.51;100.00;101502.38;4932435;28;20058;-80
2023/04/07 03:05:32;;;;;;;18.90;14.63;;;;;;;6.50;100.00;101511.91;4968894;28;20070;-81
2023/04/07 03:08:02;;;;;;;17.60;14.73;;;;;;;6.50;100.00;101511.03;4943057;28;20043;-80
2023/04/07 03:10:29;;;;;;;17.73;14.60;;;;;;;6.50;100.00;101511.91;4956344;28;20054;-80
2023/04/07 03:12:57;;;;;;;16.23;13.75;;;;;;;6.50;100.00;101521.53;4921619;28;20062;-80
2023/04/07 03:15:25;;;;;;;19.05;15.10;;;;;;;6.49;100.00;101520.63;4942683;28;20055;-81
2023/04/07 03:17:52;;;;;;;17.65;14.38;;;;;;;6.48;100.00;101515.34;4920069;28;20051;-79
2023/04/07 03:20:20;;;;;;;16.75;14.18;;;;;;;6.47;100.00;101517.09;4969107;28;20445;-80
2023/04/07 03:22:47;;;;;;;17.60;14.77;;;;;;;6.49;100.00;101522.38;4938350;28;20066;-79
2023/04/07 03:25:21;;;;;;;18.48;14.77;;;;;;;6.48;100.00;101516.22;4944861;28;20050;-80
2023/04/07 03:27:50;;;;;;;15.57;13.48;;;;;;;6.49;100.00;101510.16;4963256;28;20050;-80
2023/04/07 03:30:18;;;;;;;17.13;12.63;;;;;;;6.48;100.00;101518.84;4926107;28;20407;-80
2023/04/07 03:32:46;;;;;;;15.30;13.45;;;;;;;6.48;100.00;101516.22;4922940;28;20671;-79
2023/04/07 03:35:13;;;;;;;15.38;13.55;;;;;;;6.48;100.00;101518.84;4955228;28;20058;-80
2023/04/07 03:37:43;;;;;;;15.10;13.20;;;;;;;6.49;100.00;101525.88;4957816;28;20054;-80
2023/04/07 03:40:15;;;;;;;14.77;13.18;;;;;;;6.50;100.00;101526.75;4944959;28;20058;-79
2023/04/07 03:42:45;;;;;;;16.20;13.68;;;;;;;6.51;100.00;101525.94;4956425;28;20057;-80
2023/04/07 03:45:14;;;;;;;17.48;13.80;;;;;;;6.49;100.00;101519.75;4961458;28;20066;-79
2023/04/07 03:47:46;;;;;;;15.80;12.48;;;;;;;6.49;100.00;101527.63;4940827;28;20043;-79
2023/04/07 03:50:15;;;;;;;15.10;13.20;;;;;;;6.51;100.00;101528.53;4963215;28;20058;-80
2023/04/07 03:53:05;;;;;;;15.27;13.48;;;;;;;6.51;100.00;101531.16;4945637;28;20054;-80
2023/04/07 03:55:33;;;;;;;17.42;13.95;;;;;;;6.51;100.00;101524.19;4947123;28;20046;-79
2023/04/07 03:58:09;;;;;;;17.90;13.48;;;;;;;6.52;100.00;101527.69;4926397;28;20055;-79
2023/04/07 04:00:37;;;;;;;15.43;13.07;;;;;;;6.53;100.00;101535.59;4957184;28;20046;-79
2023/04/07 04:03:08;;;;;;;16.27;13.35;;;;;;;6.52;100.00;101536.47;4886305;28;20069;-80
2023/04/07 04:05:43;;;;;;;15.20;13.48;;;;;;;6.53;100.00;101534.72;4956338;28;20046;-80
2023/04/07 04:08:16;;;;;;;15.93;13.60;;;;;;;6.51;100.00;101526.81;4958460;28;20048;-80
2023/04/07 04:10:44;;;;;;;17.33;13.77;;;;;;;6.53;100.00;101540.84;4955510;28;20098;-79
2023/04/07 04:13:11;;;;;;;17.50;14.23;;;;;;;6.53;100.00;101538.22;4937782;28;20062;-79
2023/04/07 04:15:40;;;;;;;18.13;13.82;;;;;;;6.51;100.00;101539.91;4940380;28;20046;-80
2023/04/07 04:18:13;;;;;;;17.27;14.98;;;;;;;6.51;100.00;101539.91;4924653;28;20057;-79
2023/04/07 04:20:41;;;;;;;16.70;13.93;;;;;;;6.49;100.00;101549.44;4948672;28;20057;-80
2023/04/07 04:23:09;;;;;;;19.75;14.10;;;;;;;6.49;100.00;101546.81;4959889;28;20058;-80
2023/04/07 04:25:38;;;;;;;17.75;14.90;;;;;;;6.48;100.00;101549.38;4950694;28;20054;-80
2023/04/07 04:28:09;;;;;;;18.65;14.15;;;;;;;6.46;100.00;101551.06;4929473;28;20046;-79
2023/04/07 04:30:37;;;;;;;18.73;14.57;;;;;;;6.45;100.00;101544.97;4970433;28;20399;-79
2023/04/07 04:33:04;;;;;;;18.33;14.25;;;;;;;6.46;100.00;101561.53;4942821;28;20057;-80
2023/04/07 04:35:41;;;;;;;19.20;15.77;;;;;;;6.44;100.00;101554.50;4957834;28;20043;-79
2023/04/07 04:38:15;;;;;;;21.88;15.63;;;;;;;6.44;100.00;101559.75;4947806;28;20042;-79
2023/04/07 04:40:49;;;;;;;18.58;15.02;;;;;;;6.44;100.00;101556.25;4952734;28;20086;-79
2023/04/07 04:43:19;;;;;;;;;;;;;;;6.44;100.00;101561.50;4957444;28;20046;-79
2023/04/07 04:45:47;;;;;;;18.17;15.30;;;;;;;6.43;100.00;101572.81;4970157;28;19936;-81
2023/04/07 04:48:16;;;;;;;20.33;14.45;;;;;;;6.41;100.00;101567.53;4949350;28;20065;-81
2023/04/07 04:50:44;;;;;;;18.05;14.65;;;;;;;6.42;100.00;101569.28;4930302;28;20063;-79
2023/04/07 04:53:12;;;;;;;18.00;13.45;;;;;;;6.43;100.00;101576.31;4938371;28;20067;-81
2023/04/07 04:55:56;;;;;;;17.50;13.93;;;;;;;6.45;100.00;101573.75;4941992;28;20069;-81
2023/04/07 04:58:34;;;;;;;19.55;15.02;;;;;;;6.46;100.00;101579.88;4930275;28;20051;-81
2023/04/07 05:01:02;;;;;;;17.73;14.23;;;;;;;6.47;100.00;101587.78;4953594;28;20050;-82
2023/04/07 05:03:36;;;;;;;14.65;13.05;;;;;;;6.47;100.00;101590.41;4960786;28;20415;-79
2023/04/07 05:06:11;;;;;;;19.25;14.02;;;;;;;6.50;100.00;101587.84;4896169;28;20058;-79
2023/04/07 05:08:41;;;;;;;16.88;14.57;;;;;;;6.49;100.00;101586.09;4944123;29;21058;-79
2023/04/07 05:11:10;;;;;;;19.88;15.20;;;;;;;6.50;100.00;101584.34;4906658;28;20054;-81
2023/04/07 05:13:38;;;;;;;18.35;14.93;;;;;;;6.49;100.00;101596.56;4953912;28;20054;-80
2023/04/07 05:16:08;;;;;;;19.02;15.25;;;;;;;6.50;100.00;101585.25;4937557;28;20422;-81
2023/04/07 05:18:35;;;;;;;21.85;15.77;;;;;;;6.51;100.00;101586.16;4927262;28;20051;-81
2023/04/07 05:21:04;;;;;;;23.40;18.90;;;;;;;6.50;100.00;101592.22;4930515;28;20047;-80
2023/04/07 05:23:35;;;;;;;21.63;17.55;;;;;;;6.51;100.00;101589.66;4931816;28;20042;-81
2023/04/07 05:26:04;;;;;;;19.08;15.38;;;;;;;6.52;100.00;101593.16;4963748;28;20733;-82
2023/04/07 05:28:32;;;;;;;20.48;16.80;;;;;;;6.52;100.00;101591.44;4934071;28;20066;-81
2023/04/07 05:31:04;;;;;;;22.10;16.40;;;;;;;6.53;100.00;101590.59;4953575;28;20042;-82
2023/04/07 05:33:35;;;;;;;20.38;16.90;;;;;;;6.56;100.00;101598.56;4942513;28;20051;-81
2023/04/07 05:36:03;;;;;;;22.33;18.13;;;;;;;6.57;100.00;101607.28;4952894;28;20051;-80
2023/04/07 05:38:32;;;;;;;20.77;17.20;;;;;;;6.59;100.00;101605.59;4925442;28;20536;-80
2023/04/07 05:41:11;;;;;;;20.83;16.33;;;;;;;6.60;100.00;101605.66;4961952;28;20062;-81
2023/04/07 05:43:39;;;;;;;18.20;15.35;;;;;;;6.62;100.00;101616.19;4955368;28;20502;-81
2023/04/07 05:46:08;;;;;;;19.50;16.02;;;;;;;6.62;100.00;101609.22;4940626;28;20051;-80
2023/04/07 05:48:45;;;;;;;18.27;14.68;;;;;;;6.65;100.00;101616.25;4945469;28;20110;-80
2023/04/07 05:51:14;;;;;;;22.40;15.00;;;;;;;6.68;100.00;101619.00;4905217;28;20122;-80
2023/04/07 05:53:42;;;;;;;19.33;16.33;;;;;;;6.70;100.00;101616.44;4935702;28;20057;-81
2023/04/07 05:56:10;;;;;;;19.02;15.60;;;;;;;6.71;100.00;101615.56;4952795;28;20054;-80
2023/04/07 05:58:42;;;;;;;18.60;15.77;;;;;;;6.74;100.00;101620.91;4960268;28;20039;-80
2023/04/07 06:01:11;;;;;;;18.27;15.07;;;;;;;6.77;100.00;101623.63;4958004;28;20058;-80
2023/04/07 06:03:39;;;;;;;19.15;16.13;;;;;;;6.79;100.00;101635.06;4931081;28;20050;-80
2023/04/07 06:06:22;;;;;;;19.77;15.77;;;;;;;6.81;100.00;101629.00;4942671;28;20051;-80
2023/04/07 06:08:50;;;;;;;17.98;15.00;;;;;;;6.83;100.00;101631.69;4930318;28;20058;-80
2023/04/07 06:11:17;;;;;;;22.10;16.30;;;;;;;6.84;100.00;101633.44;4909120;28;20043;-80
2023/04/07 06:13:45;;;;;;;20.58;15.82;;;;;;;6.86;100.00;101646.59;4951621;28;20073;-80
2023/04/07 06:16:13;;;;;;;21.98;16.13;;;;;;;6.87;100.00;101641.41;4947784;28;20055;-80
2023/04/07 06:18:42;;;;;;;19.85;16.50;;;;;;;6.88;100.00;101645.81;4947786;28;20494;-79
2023/04/07 06:21:09;;;;;;;21.35;16.52;;;;;;;6.87;100.00;101638.78;4942274;28;20058;-80
2023/04/07 06:23:37;;;;;;;19.65;16.10;;;;;;;6.90;100.00;101648.47;4915031;28;20580;-79
2023/04/07 06:26:10;;;;;;;19.05;15.63;;;;;;;6.91;100.00;101645.00;4946180;28;20063;-79
2023/04/07 06:28:38;;;;;;;22.65;16.48;;;;;;;6.92;100.00;101649.41;4949685;28;20051;-80
2023/04/07 06:31:07;;;;;;;20.08;16.00;;;;;;;6.92;100.00;101652.03;4957931;28;20101;-79
2023/04/07 06:33:36;;;;;;;;;;;;;;;6.91;100.00;101661.63;4934450;28;20043;-79
2023/04/07 06:36:04;;;;;;;23.80;18.42;;;;;;;6.91;100.00;101661.63;4943753;28;20286;-80
2023/04/07 06:38:31;;;;;;;25.55;19.58;;;;;;;6.95;100.00;101665.22;4935337;28;20051;-79
2023/04/07 06:40:59;;;;;;;26.23;20.45;;;;;;;6.97;100.00;101669.66;4943643;28;20058;-79
2023/04/07 06:43:26;;;;;;;27.70;19.70;;;;;;;7.01;100.00;101665.41;4941097;28;20054;-80
2023/04/07 06:45:59;;;;;;;23.73;19.75;;;;;;;7.05;100.00;101672.56;4951975;28;20050;-81
2023/04/07 06:48:26;;;;;;;29.55;21.27;;;;;;;7.08;100.00;101663.88;4957327;28;20031;-81
2023/04/07 06:50:54;;;;;;;27.08;21.30;;;;;;;7.10;100.00;101673.56;4949484;28;20126;-79
2023/04/07 06:53:21;;;;;;;29.65;21.45;;;;;;;7.12;100.00;101677.09;4926440;28;20054;-78
2023/04/07 06:59:49;;;;;;;29.95;22.23;;;;;;;7.11;100.00;101682.34;4950702;28;20043;-80
2023/04/07 07:02:16;;;;;;;30.88;22.02;;;;;;;7.15;100.00;101681.56;4963345;28;20046;-79
2023/04/07 07:04:44;;;;;;;26.10;21.40;;;;;;;7.17;100.00;101690.38;4943315;28;20046;-79
2023/04/07 07:07:12;;;;;;;27.77;19.52;;;;;;;7.12;100.00;101687.59;4977425;28;20421;-80
2023/04/07 07:09:39;;;;;;;25.17;19.67;;;;;;;7.10;100.00;101688.41;4932358;28;20038;-80
2023/04/07 07:12:06;;;;;;;26.05;19.15;;;;;;;7.09;100.00;101698.00;4957262;28;20070;-80
2023/04/07 07:14:34;;;;;;;22.05;17.42;;;;;;;7.07;100.00;101698.78;4950788;28;20081;-79
2023/04/07 07:17:01;;;;;;;23.13;17.33;;;;;;;7.06;100.00;101700.53;4988037;28;20054;-80
2023/04/07 07:19:29;;;;;;;21.75;17.45;;;;;;;7.07;100.00;101693.53;4957390;28;20540;-80
2023/04/07 07:21:56;;;;;;;23.15;17.30;;;;;;;7.13;100.00;101699.88;4926837;28;20059;-80
2023/04/07 07:24:23;;;;;;;25.35;18.67;;;;;;;7.20;100.00;101700.94;4944331;28;20062;-79
2023/04/07 07:26:51;;;;;;;22.70;17.67;;;;;;;7.29;100.00;101706.47;4921389;28;20418;-80
2023/04/07 07:29:19;;;;;;;24.17;18.42;;;;;;;7.31;100.00;101717.88;4965253;28;20599;-80
2023/04/07 07:31:48;;;;;;;23.35;17.35;;;;;;;7.32;100.00;101714.44;4965373;28;20051;-82
2023/04/07 07:34:15;;;;;;;21.25;16.60;;;;;;;7.34;100.00;101715.38;4960934;28;20058;-79
2023/04/07 07:36:42;;;;;;;18.10;15.77;;;;;;;7.37;100.00;101715.47;4950149;28;20058;-81
2023/04/07 07:39:10;;;;;;;26.48;17.75;;;;;;;7.39;100.00;101716.41;4958077;28;20047;-81
2023/04/07 07:41:37;;;;;;;19.35;15.68;;;;;;;7.42;100.00;101732.22;4903836;28;20058;-81
2023/04/07 07:44:04;;;;;;;23.20;17.63;;;;;;;7.50;100.00;101727.19;4956983;28;20047;-81
2023/04/07 07:46:32;;;;;;;22.70;15.90;;;;;;;7.61;100.00;101736.28;4947106;28;20035;-81
2023/04/07 07:48:59;;;;;;;23.17;15.93;;;;;;;7.72;100.00;101733.09;4962838;28;20046;-80
2023/04/07 07:51:27;;;;;;;25.33;14.45;;;;;;;7.87;100.00;101730.91;4950537;28;20557;-80
2023/04/07 07:53:54;;;;;;;20.30;14.75;;;;;;;7.91;100.00;101726.63;4945687;28;20054;-81
2023/04/07 07:56:22;;;;;;;23.23;16.70;;;;;;;8.02;100.00;101733.06;4905660;28;20043;-81
2023/04/07 07:58:50;;;;;;;18.42;15.23;;;;;;;8.10;100.00;101736.78;4942951;28;20054;-81
2023/04/07 08:01:17;;;;;;;20.90;13.88;;;;;;;8.09;100.00;101745.53;4927839;29;20494;-80
2023/04/07 08:03:45;;;;;;;18.55;14.65;;;;;;;8.16;100.00;101741.31;4972996;28;20046;-81
2023/04/07 08:06:12;;;;;;;18.40;14.68;;;;;;;8.18;100.00;101744.88;4918102;28;20054;-80
2023/04/07 08:08:40;;;;;;;19.58;15.35;;;;;;;8.28;100.00;101744.28;4956568;28;20047;-81
2023/04/07 08:11:07;;;;;;;17.58;14.32;;;;;;;8.37;100.00;101751.50;4951667;28;20039;-81
2023/04/07 08:13:35;;;;;;;16.52;14.00;;;;;;;8.50;100.00;101761.53;4950809;28;20066;-81
2023/04/07 08:16:02;;;;;;;16.45;13.05;;;;;;;8.62;100.00;101752.19;4967171;28;20050;-81
2023/04/07 08:18:30;;;;;;;15.15;12.77;;;;;;;8.74;100.00;101757.75;4920516;28;20406;-81
2023/04/07 08:20:57;;;;;;;16.70;13.48;;;;;;;8.81;100.00;101743.94;4949305;28;20070;-82
2023/04/07 08:23:25;;;;;;;15.32;13.35;;;;;;;8.93;100.00;101751.22;4946011;28;20058;-80
2023/04/07 08:25:52;;;;;;;14.10;12.45;;;;;;;8.94;100.00;101764.41;4951801;28;20051;-80
2023/04/07 08:28:20;;;;;;;15.05;12.60;;;;;;;8.95;100.00;101760.91;4940336;28;20043;-80
2023/04/07 08:30:48;;;;;;;15.60;12.00;;;;;;;9.04;100.00;101756.75;4930301;28;20061;-81
2023/04/07 08:33:15;;;;;;;16.13;12.40;;;;;;;9.06;100.00;101761.19;4934518;28;20046;-81
2023/04/07 08:35:42;;;;;;;16.77;12.48;;;;;;;9.08;100.00;101774.38;4947221;28;20061;-80
2023/04/07 08:38:10;;;;;;;15.00;12.95;;;;;;;9.11;100.00;101766.53;4943879;28;20055;-79
2023/04/07 08:40:38;;;;;;;13.90;11.98;;;;;;;9.23;100.00;101773.84;4944279;28;20061;-81
2023/04/07 08:43:08;;;;;;;13.20;11.82;;;;;;;9.41;100.00;101768.09;4913648;28;20057;-81
2023/04/07 08:45:39;;;;;;;13.23;10.77;;;;;;;9.62;100.00;101767.69;4969328;28;20654;-81
2023/04/07 08:48:16;;;;;;;13.80;12.40;;;;;;;9.85;100.00;101770.81;4918480;28;20066;-81
2023/04/07 08:50:45;;;;;;;13.05;11.27;;;;;;;10.08;100.00;101782.72;4964188;28;20047;-81
2023/04/07 08:53:14;;;;;;;12.88;10.77;;;;;;;10.25;100.00;101782.19;4953612;28;20063;-80
2023/04/07 08:55:42;;;;;;;10.73;9.50;;;;;;;10.41;100.00;101784.25;4955976;28;20054;-82
2023/04/07 08:58:12;;;;;;;12.07;10.45;;;;;;;10.44;100.00;101784.31;4899083;28;20433;-78
2023/04/07 09:00:44;;;;;;;15.25;10.93;;;;;;;10.56;100.00;101780.13;4953744;28;20654;-81
2023/04/07 09:03:12;;;;;;;13.50;10.27;;;;;;;10.65;100.00;101780.31;4951712;28;20051;-81
2023/04/07 09:05:40;;;;;;;12.02;9.73;;;;;;;10.67;100.00;101774.19;4929951;29;20035;-82
2023/04/07 09:08:07;;;;;;;11.15;9.98;;;;;;;10.68;100.00;101790.88;4960145;28;20039;-80
2023/04/07 09:10:36;;;;;;;12.27;10.43;;;;;;;10.72;100.00;101787.47;4929582;28;20043;-82
2023/04/07 09:13:03;;;;;;;11.88;10.60;;;;;;;10.78;100.00;101784.94;4908058;28;20057;-80
2023/04/07 09:15:31;;;;;;;12.38;11.07;;;;;;;10.87;100.00;101787.72;4977283;28;20501;-81
2023/04/07 09:17:58;;;;;;;15.02;10.55;;;;;;;10.89;100.00;101788.66;4953152;28;20059;-81
2023/04/07 09:20:26;;;;;;;14.57;10.25;;;;;;;10.85;100.00;101792.09;4926451;29;20498;-80
2023/04/07 09:22:53;;;;;;;11.25;9.45;;;;;;;10.78;100.00;101792.84;4962660;28;20058;-80
2023/04/07 09:25:26;;;;;;;11.00;9.45;;;;;;;10.70;100.00;101795.34;4961748;28;20057;-82
2023/04/07 09:28:02;;;;;;;11.73;9.45;;;;;;;10.67;100.00;101791.75;4948951;28;20058;-80
2023/04/07 09:30:32;;;;;;;11.13;9.85;;;;;;;10.64;100.00;101796.97;4945824;28;20031;-79
2023/04/07 09:33:00;;;;;;;14.82;9.98;;;;;;;10.60;100.00;101795.16;4933605;28;20054;-79
2023/04/07 09:35:28;;;;;;;9.98;8.93;;;;;;;10.59;100.00;101786.34;4953857;28;20066;-80
2023/04/07 09:38:07;;;;;;;11.07;9.07;;;;;;;10.61;100.00;101808.34;4967918;28;20055;-78
2023/04/07 09:40:36;;;;;;;11.35;9.23;;;;;;;10.54;100.00;101796.78;4972686;28;20039;-78
2023/04/07 09:43:04;;;;;;;10.57;9.57;;;;;;;10.50;100.00;101807.28;4968049;28;20502;-80
2023/04/07 09:45:34;;;;;;;10.65;8.88;;;;;;;10.48;100.00;101796.69;4940454;28;20047;-80
2023/04/07 09:48:08;;;;;;;10.68;9.00;;;;;;;10.51;100.00;101801.16;4927800;28;20058;-78
2023/04/07 09:50:39;;;;;;;10.50;9.20;;;;;;;10.65;100.00;101797.00;4972110;28;20046;-78
2023/04/07 09:53:07;;;;;;;9.95;8.93;;;;;;;10.72;100.00;101800.66;4972188;28;20054;-80
2023/04/07 09:55:36;;;;;;;9.57;8.40;;;;;;;10.87;100.00;101800.91;4937315;28;20053;-80
2023/04/07 09:58:05;;;;;;;12.05;8.27;;;;;;;10.97;100.00;101796.69;4964565;28;20051;-78
2023/04/07 10:00:34;;;;;;;10.40;8.65;;;;;;;10.91;100.00;101802.75;4932319;28;20035;-80
2023/04/07 10:03:03;;;;;;;9.02;8.13;;;;;;;10.96;100.00;101799.28;4968172;28;20062;-80
2023/04/07 10:05:32;;;;;;;8.30;7.43;;;;;;;11.07;100.00;101800.34;4955500;28;20050;-79
2023/04/07 10:08:01;;;;;;;10.13;7.75;;;;;;;11.09;100.00;101801.25;4937409;28;20079;-79
2023/04/07 10:10:30;;;;;;;9.38;8.25;;;;;;;11.07;100.00;101803.00;4952593;28;20046;-79
2023/04/07 10:12:58;;;;;;;9.27;6.85;;;;;;;11.10;100.00;101811.84;4963691;28;20062;-79
2023/04/07 10:15:25;;;;;;;10.40;8.18;;;;;;;11.00;100.00;101806.38;4932901;28;20073;-79
2023/04/07 10:17:55;;;;;;;7.70;7.00;;;;;;;11.10;100.00;101803.06;4967547;28;20049;-79
2023/04/07 10:20:23;;;;;;;11.43;7.68;;;;;;;11.17;100.00;101802.28;4947404;28;20103;-79
2023/04/07 10:22:52;;;;;;;8.95;8.15;;;;;;;11.29;100.00;101799.84;4976650;28;20528;-79
2023/04/07 10:25:23;;;;;;;8.40;7.65;;;;;;;11.45;100.00;101800.94;4938064;28;20059;-79
2023/04/07 10:27:58;;;;;;;9.63;8.18;;;;;;;11.57;100.00;101801.97;4954003;28;20070;-79
2023/04/07 10:30:29;;;;;;;9.52;7.60;;;;;;;11.64;100.00;101817.06;4956703;28;20051;-79
2023/04/07 10:32:57;;;;;;;8.88;7.97;;;;;;;11.61;100.00;101815.25;4952275;28;20055;-79
2023/04/07 10:35:25;;;;;;;8.98;7.75;;;;;;;11.71;100.00;101821.56;4961331;28;20054;-79
2023/04/07 10:38:09;;;;;;;10.02;8.73;;;;;;;11.75;100.00;101820.72;4950599;28;20042;-78
2023/04/07 10:40:37;;;;;;;14.60;8.00;;;;;;;11.88;100.00;101816.50;4953366;28;20061;-78
2023/04/07 10:43:08;;;;;;;9.82;7.90;;;;;;;11.78;100.00;101820.78;4953729;28;20050;-79
2023/04/07 10:45:45;;;;;;;10.80;8.30;;;;;;;11.67;100.00;101828.53;4971033;28;20046;-79
2023/04/07 10:48:14;;;;;;;9.07;8.18;;;;;;;11.64;100.00;101831.13;4927317;28;20051;-78
2023/04/07 10:50:42;;;;;;;11.48;9.05;;;;;;;11.63;100.00;101829.38;4929017;28;20082;-79
2023/04/07 10:53:15;;;;;;;12.82;8.73;;;;;;;11.66;100.00;101836.44;4952807;28;20123;-78
2023/04/07 10:55:43;;;;;;;8.68;7.78;;;;;;;11.64;100.00;101841.69;4966366;28;20031;-79
2023/04/07 10:58:14;;;;;;;12.90;8.93;;;;;;;11.54;100.00;101836.28;4938555;28;20054;-80
2023/04/07 11:01:05;;;;;;;10.40;8.27;;;;;;;11.50;100.00;101830.94;4957680;28;20561;-80
2023/04/07 11:03:34;;;;;;;10.05;8.93;;;;;;;11.46;100.00;101844.06;4889425;28;20051;-80
2023/04/07 11:06:03;;;;;;;10.73;9.43;;;;;;;11.50;100.00;101838.84;4960947;28;20058;-77
2023/04/07 11:08:44;;;;;;;9.73;8.73;;;;;;;11.70;100.00;101843.53;4962774;28;20051;-79
2023/04/07 11:11:19;;;;;;;9.90;8.82;;;;;;;11.81;100.00;101839.28;4959805;28;20038;-78
2023/04/07 11:13:49;;;;;;;10.70;8.70;;;;;;;11.92;100.00;101831.56;4957594;28;20486;-77
2023/04/07 11:16:18;;;;;;;11.73;9.55;;;;;;;12.00;98.26;101840.50;4962603;28;20051;-78
2023/04/07 11:18:46;;;;;;;9.35;8.30;;;;;;;12.09;96.20;101843.22;4918130;28;20391;-78
2023/04/07 11:21:18;;;;;;;14.30;9.68;;;;;;;12.19;96.14;101844.25;4955656;28;20402;-78
2023/04/07 11:23:46;;;;;;;13.27;8.82;;;;;;;12.28;94.17;101830.25;4962013;28;20073;-78
2023/04/07 11:26:15;;;;;;;10.85;9.35;;;;;;;12.42;94.33;101844.53;4951679;28;20513;-78